createdAt,value
2019-02-27T00:02:00.205Z,100706.20
2019-02-27T00:04:26.154Z,100708.49
2019-02-27T00:06:52.293Z,100714.38
2019-02-27T00:09:18.311Z,100714.81
2019-02-27T00:11:46.681Z,100718.14
2019-02-27T00:14:12.179Z,100724.25
2019-02-27T00:16:38.109Z,100717.65
2019-02-27T00:19:04.144Z,100727.95
2019-02-27T00:21:33.355Z,100732.63
2019-02-27T00:23:59.437Z,100738.05
2019-02-27T00:26:25.270Z,100743.55
2019-02-27T00:28:51.201Z,100745.33
2019-02-27T00:31:17.037Z,100741.93
2019-02-27T00:33:42.979Z,100745.53
2019-02-27T00:36:12.010Z,100744.88
2019-02-27T00:38:36.829Z,100748.72
2019-02-27T00:41:02.674Z,100751.70
2019-02-27T00:43:29.087Z,100750.56
2019-02-27T00:45:55.096Z,100758.33
2019-02-27T00:48:21.181Z,100754.00
2019-02-27T00:50:47.023Z,100755.86
2019-02-27T00:53:12.894Z,100753.35
2019-02-27T00:55:39.547Z,100753.35
2019-02-27T00:58:05.518Z,100749.52
2019-02-27T01:00:31.487Z,100756.80
2019-02-27T01:02:57.358Z,100743.81
2019-02-27T01:05:23.500Z,100747.12
2019-02-27T01:07:51.936Z,100749.80
2019-02-27T01:10:17.253Z,100744.94
2019-02-27T01:12:43.223Z,100742.44
2019-02-27T01:15:11.311Z,100736.15
2019-02-27T01:17:37.379Z,100736.20
2019-02-27T01:20:13.549Z,100739.95
2019-02-27T01:22:39.463Z,100743.02
2019-02-27T01:25:05.518Z,100728.59
2019-02-27T01:27:31.514Z,100723.95
2019-02-27T01:29:57.462Z,100725.02
2019-02-27T01:32:23.285Z,100729.42
2019-02-27T01:34:49.283Z,100718.91
2019-02-27T01:37:15.111Z,100723.07
2019-02-27T01:39:41.855Z,100718.13
2019-02-27T01:42:08.942Z,100720.83
2019-02-27T01:44:34.778Z,100723.05
2019-02-27T01:47:02.396Z,100718.91
2019-02-27T01:49:28.529Z,100715.63
2019-02-27T01:51:54.361Z,100713.31
2019-02-27T01:54:20.321Z,100704.34
2019-02-27T01:56:46.161Z,100701.91
2019-02-27T01:59:14.055Z,100702.20
2019-02-27T02:01:39.939Z,100700.17
2019-02-27T02:04:05.777Z,100704.71
2019-02-27T02:06:32.444Z,100710.61
2019-02-27T02:09:10.718Z,100703.06
2019-02-27T02:11:36.566Z,100699.20
2019-02-27T02:14:15.413Z,100698.58
2019-02-27T02:16:57.390Z,100693.15
2019-02-27T02:19:36.217Z,100692.96
2019-02-27T02:22:14.685Z,100687.34
2019-02-27T02:25:02.528Z,100692.47
2019-02-27T02:27:44.367Z,100681.20
2019-02-27T02:30:32.150Z,100682.45
2019-02-27T02:33:30.712Z,100685.49
2019-02-27T02:36:03.447Z,100684.92
2019-02-27T02:38:53.027Z,100677.61
2019-02-27T02:41:37.761Z,100684.70
2019-02-27T02:44:21.087Z,100684.34
2019-02-27T02:46:53.771Z,100683.34
2019-02-27T02:49:42.624Z,100679.58
2019-02-27T02:52:22.521Z,100675.59
2019-02-27T02:54:58.083Z,100675.36
2019-02-27T02:57:44.837Z,100676.20
2019-02-27T03:00:26.701Z,100676.50
2019-02-27T03:03:20.958Z,100674.16
2019-02-27T03:06:02.611Z,100668.05
2019-02-27T03:08:47.089Z,100674.31
2019-02-27T03:11:39.036Z,100671.71
2019-02-27T03:14:20.384Z,100664.67
2019-02-27T03:17:18.056Z,100657.63
2019-02-27T03:19:58.362Z,100650.66
2019-02-27T03:22:31.270Z,100646.02
2019-02-27T03:25:09.953Z,100643.63
2019-02-27T03:28:01.751Z,100648.45
2019-02-27T03:30:36.864Z,100644.88
2019-02-27T03:33:23.059Z,100651.03
2019-02-27T03:35:53.252Z,100653.08
2019-02-27T03:38:39.415Z,100654.06
2019-02-27T03:41:24.374Z,100643.72
2019-02-27T03:44:12.330Z,100644.11
2019-02-27T03:46:54.167Z,100639.32
2019-02-27T03:49:29.882Z,100634.09
2019-02-27T03:52:25.547Z,100638.00
2019-02-27T03:55:04.384Z,100629.12
2019-02-27T03:58:00.133Z,100626.40
2019-02-27T04:00:32.509Z,100619.06
2019-02-27T04:03:02.211Z,100616.31
2019-02-27T04:05:46.237Z,100621.14
2019-02-27T04:08:27.705Z,100619.77
2019-02-27T04:10:53.654Z,100614.27
2019-02-27T04:13:19.481Z,100625.05
2019-02-27T04:15:45.535Z,100626.87
2019-02-27T04:18:11.158Z,100635.48
2019-02-27T04:20:37.155Z,100634.27
2019-02-27T04:23:03.027Z,100633.83
2019-02-27T04:25:31.398Z,100636.20
2019-02-27T04:27:56.832Z,100639.26
2019-02-27T04:30:22.681Z,100634.34
2019-02-27T04:32:48.988Z,100636.31
2019-02-27T04:35:15.012Z,100633.33
2019-02-27T04:37:40.856Z,100634.17
2019-02-27T04:40:10.784Z,100635.75
2019-02-27T04:42:34.973Z,100638.52
2019-02-27T04:45:00.860Z,100625.71
2019-02-27T04:47:29.172Z,100628.36
2019-02-27T04:49:54.562Z,100637.25
2019-02-27T04:52:21.918Z,100646.50
2019-02-27T04:54:48.348Z,100645.45
2019-02-27T04:57:14.276Z,100638.69
2019-02-27T04:59:40.199Z,100642.32
2019-02-27T05:02:06.187Z,100640.41
2019-02-27T05:04:35.007Z,100643.06
2019-02-27T05:06:59.796Z,100643.17
2019-02-27T05:09:25.668Z,100647.95
2019-02-27T05:11:51.588Z,100641.38
2019-02-27T05:14:17.471Z,100646.96
2019-02-27T05:16:46.993Z,100649.72
2019-02-27T05:19:11.094Z,100647.14
2019-02-27T05:21:36.986Z,100651.39
2019-02-27T05:24:05.176Z,100648.41
2019-02-27T05:26:30.728Z,100651.21
2019-02-27T05:28:56.595Z,100648.66
2019-02-27T05:31:22.438Z,100648.33
2019-02-27T05:33:48.398Z,100650.84
2019-02-27T05:36:14.247Z,100654.53
2019-02-27T05:38:41.027Z,100652.71
2019-02-27T05:41:08.144Z,100659.22
2019-02-27T05:43:33.989Z,100658.52
2019-02-27T05:46:02.755Z,100665.70
2019-02-27T05:48:27.584Z,100655.88
2019-02-27T05:50:54.009Z,100659.20
2019-02-27T05:53:22.099Z,100660.18
2019-02-27T05:55:47.560Z,100655.41
2019-02-27T05:58:13.464Z,100650.33
2019-02-27T06:00:39.293Z,100655.37
2019-02-27T06:03:05.262Z,100648.69
2019-02-27T06:05:33.652Z,100644.44
2019-02-27T06:08:02.092Z,100634.23
2019-02-27T06:10:26.743Z,100636.04
2019-02-27T06:12:52.717Z,100637.72
2019-02-27T06:15:18.663Z,100645.85
2019-02-27T06:17:48.824Z,100646.13
2019-02-27T06:20:14.077Z,100652.41
2019-02-27T06:22:39.992Z,100652.73
2019-02-27T06:25:12.372Z,100654.47
2019-02-27T06:27:39.454Z,100647.34
2019-02-27T06:30:12.555Z,100649.99
2019-02-27T06:32:38.505Z,100643.47
2019-02-27T06:35:07.180Z,100649.00
2019-02-27T06:37:33.023Z,100651.91
2019-02-27T06:39:58.869Z,100645.45
2019-02-27T06:42:24.830Z,100658.00
2019-02-27T06:44:50.777Z,100653.15
2019-02-27T06:47:16.764Z,100651.34
2019-02-27T06:49:42.694Z,100652.56
2019-02-27T06:52:09.277Z,100650.70
2019-02-27T06:54:37.760Z,100652.89
2019-02-27T06:57:07.482Z,100657.31
2019-02-27T06:59:31.613Z,100661.03
2019-02-27T07:01:57.547Z,100665.30
2019-02-27T07:04:23.403Z,100658.05
2019-02-27T07:06:49.249Z,100658.02
2019-02-27T07:09:15.202Z,100670.97
2019-02-27T07:11:44.880Z,100671.47
2019-02-27T07:14:08.911Z,100678.05
2019-02-27T07:16:34.771Z,100674.87
2019-02-27T07:19:00.633Z,100671.77
2019-02-27T07:21:26.465Z,100675.73
2019-02-27T07:23:57.698Z,100669.84
2019-02-27T07:26:20.090Z,100676.27
2019-02-27T07:28:46.053Z,100673.83
2019-02-27T07:31:12.558Z,100682.45
2019-02-27T07:33:40.555Z,100682.45
2019-02-27T07:36:06.362Z,100681.99
2019-02-27T07:38:32.299Z,100684.97
2019-02-27T07:40:58.358Z,100680.73
2019-02-27T07:43:24.207Z,100681.33
2019-02-27T07:45:50.039Z,100686.83
2019-02-27T07:48:16.026Z,100690.48
2019-02-27T07:50:41.857Z,100697.19
2019-02-27T07:53:07.706Z,100697.63
2019-02-27T07:55:33.561Z,100701.30
2019-02-27T07:57:59.531Z,100703.19
2019-02-27T08:00:26.396Z,100702.11
2019-02-27T08:02:52.555Z,100702.76
2019-02-27T08:05:18.515Z,100701.09
2019-02-27T08:07:48.784Z,100703.28
2019-02-27T08:10:19.795Z,100710.09
2019-02-27T08:12:45.841Z,100709.29
2019-02-27T08:15:14.213Z,100710.80
2019-02-27T08:17:40.183Z,100714.17
2019-02-27T08:20:07.910Z,100710.03
2019-02-27T08:22:33.860Z,100706.30
2019-02-27T08:24:59.761Z,100702.48
2019-02-27T08:27:25.602Z,100709.33
2019-02-27T08:29:54.939Z,100707.86
2019-02-27T08:32:20.917Z,100708.18
2019-02-27T08:34:46.761Z,100710.02
2019-02-27T08:37:12.651Z,100710.09
2019-02-27T08:39:38.614Z,100698.52
2019-02-27T08:42:04.574Z,100710.55
2019-02-27T08:44:30.561Z,100707.75
2019-02-27T08:46:56.413Z,100713.30
2019-02-27T08:49:24.964Z,100712.42
2019-02-27T08:51:50.359Z,100707.38
2019-02-27T08:54:16.193Z,100695.72
2019-02-27T08:56:44.020Z,100710.06
2019-02-27T08:59:10.224Z,100706.67
2019-02-27T09:01:37.786Z,100699.52
2019-02-27T09:04:06.063Z,100692.47
2019-02-27T09:06:31.751Z,100699.80
2019-02-27T09:08:57.653Z,100696.39
2019-02-27T09:11:23.592Z,100702.23
2019-02-27T09:13:49.428Z,100707.25
2019-02-27T09:16:15.379Z,100709.35
2019-02-27T09:18:41.346Z,100704.20
2019-02-27T09:21:07.387Z,100703.29
2019-02-27T09:23:33.644Z,100700.85
2019-02-27T09:26:02.518Z,100702.07
2019-02-27T09:28:27.262Z,100701.30
2019-02-27T09:30:53.145Z,100705.83
2019-02-27T09:33:20.210Z,100705.28
2019-02-27T09:35:46.743Z,100700.63
2019-02-27T09:38:12.697Z,100698.08
2019-02-27T09:40:39.578Z,100705.50
2019-02-27T09:43:06.333Z,100707.70
2019-02-27T09:45:34.816Z,100703.95
2019-02-27T09:48:01.440Z,100709.45
2019-02-27T09:50:36.845Z,100702.47
2019-02-27T09:53:04.317Z,100705.14
2019-02-27T09:55:30.476Z,100693.39
2019-02-27T09:57:56.411Z,100693.78
2019-02-27T10:00:52.258Z,100704.47
2019-02-27T10:03:21.272Z,100703.19
2019-02-27T10:05:46.466Z,100708.70
2019-02-27T10:08:12.569Z,100707.95
2019-02-27T10:10:38.818Z,100705.49
2019-02-27T10:13:04.772Z,100703.34
2019-02-27T10:15:30.631Z,100703.06
2019-02-27T10:17:56.581Z,100704.09
2019-02-27T10:20:22.541Z,100700.78
2019-02-27T10:22:48.460Z,100698.86
2019-02-27T10:25:14.527Z,100696.98
2019-02-27T10:27:40.587Z,100696.44
2019-02-27T10:30:14.069Z,100693.03
2019-02-27T10:32:40.209Z,100697.42
2019-02-27T10:35:08.068Z,100689.77
2019-02-27T10:37:34.020Z,100689.39
2019-02-27T10:40:00.251Z,100691.89
2019-02-27T10:42:26.305Z,100694.13
2019-02-27T10:44:52.165Z,100688.48
2019-02-27T10:47:18.075Z,100688.65
2019-02-27T10:49:44.060Z,100682.07
2019-02-27T10:52:09.925Z,100684.81
2019-02-27T10:54:37.023Z,100682.45
2019-02-27T10:57:03.531Z,100679.34
2019-02-27T10:59:29.391Z,100680.49
2019-02-27T11:01:55.319Z,100677.27
2019-02-27T11:04:21.435Z,100668.45
2019-02-27T11:06:47.387Z,100665.36
2019-02-27T11:09:22.249Z,100663.73
2019-02-27T11:11:48.761Z,100656.81
2019-02-27T11:14:14.746Z,100654.47
2019-02-27T11:16:40.576Z,100651.72
2019-02-27T11:19:06.682Z,100646.11
2019-02-27T11:21:32.611Z,100649.54
2019-02-27T11:23:58.433Z,100646.05
2019-02-27T11:26:24.537Z,100639.98
2019-02-27T11:28:50.447Z,100636.19
2019-02-27T11:31:16.381Z,100638.38
2019-02-27T11:33:42.733Z,100635.09
2019-02-27T11:36:08.674Z,100638.05
2019-02-27T11:38:34.600Z,100630.50
2019-02-27T11:41:00.695Z,100629.22
2019-02-27T11:43:26.631Z,100623.30
2019-02-27T11:45:57.499Z,100621.80
2019-02-27T11:48:22.888Z,100620.81
2019-02-27T11:50:49.502Z,100616.25
2019-02-27T11:53:15.440Z,100612.57
2019-02-27T11:55:41.583Z,100618.72
2019-02-27T11:58:07.587Z,100615.71
2019-02-27T12:00:33.922Z,100608.41
2019-02-27T12:02:59.762Z,100614.91
2019-02-27T12:05:30.304Z,100610.30
2019-02-27T12:07:54.783Z,100609.56
2019-02-27T12:10:29.485Z,100604.58
2019-02-27T12:12:59.500Z,100594.21
2019-02-27T12:15:23.519Z,100596.73
2019-02-27T12:17:49.461Z,100593.56
2019-02-27T12:20:18.845Z,100590.03
2019-02-27T12:22:45.065Z,100594.50
2019-02-27T12:25:15.140Z,100589.94
2019-02-27T12:27:48.976Z,100589.97
2019-02-27T12:30:12.483Z,100584.88
2019-02-27T12:32:38.424Z,100583.36
2019-02-27T12:35:08.218Z,100577.91
2019-02-27T12:37:35.972Z,100581.49
2019-02-27T12:40:04.103Z,100575.63
2019-02-27T12:42:37.104Z,100582.58
2019-02-27T12:44:57.716Z,100574.96
2019-02-27T12:47:23.577Z,100564.39
2019-02-27T12:49:51.534Z,100567.27
2019-02-27T12:52:17.200Z,100576.23
2019-02-27T12:54:43.233Z,100576.36
2019-02-27T12:57:09.216Z,100579.77
2019-02-27T12:59:35.152Z,100580.92
2019-02-27T13:02:08.115Z,100586.69
2019-02-27T13:04:28.986Z,100592.13
2019-02-27T13:06:54.923Z,100583.25
2019-02-27T13:09:20.761Z,100584.45
2019-02-27T13:11:46.621Z,100586.69
2019-02-27T13:14:12.451Z,100582.24
2019-02-27T13:16:38.417Z,100583.19
2019-02-27T13:19:07.086Z,100574.64
2019-02-27T13:21:32.267Z,100561.25
2019-02-27T13:23:58.082Z,100545.58
2019-02-27T13:26:23.975Z,100527.80
2019-02-27T13:28:49.943Z,100523.03
2019-02-27T13:31:16.229Z,100516.27
2019-02-27T13:33:44.713Z,100513.33
2019-02-27T13:36:12.756Z,100501.09
2019-02-27T13:38:38.605Z,100498.41
2019-02-27T13:41:04.670Z,100495.20
2019-02-27T13:43:30.518Z,100495.14
2019-02-27T13:45:56.469Z,100492.27
2019-02-27T13:48:22.378Z,100485.89
2019-02-27T13:50:48.316Z,100484.77
2019-02-27T13:53:14.285Z,100485.84
2019-02-27T13:55:40.529Z,100485.84
2019-02-27T13:58:06.347Z,100479.56
2019-02-27T14:00:34.283Z,100475.95
2019-02-27T14:03:00.431Z,100477.84
2019-02-27T14:05:26.462Z,100475.48
2019-02-27T14:07:57.275Z,100469.14
2019-02-27T14:10:23.675Z,100470.55
2019-02-27T14:12:49.727Z,100464.10
2019-02-27T14:15:17.763Z,100466.11
2019-02-27T14:17:43.845Z,100457.36
2019-02-27T14:20:14.820Z,100455.95
2019-02-27T14:22:41.238Z,100455.26
2019-02-27T14:25:10.682Z,100441.69
2019-02-27T14:27:36.608Z,100448.02
2019-02-27T14:30:08.009Z,100439.97
2019-02-27T14:32:33.914Z,100439.51
2019-02-27T14:35:00.571Z,100436.77
2019-02-27T14:37:27.476Z,100437.24
2019-02-27T14:39:53.330Z,100436.78
2019-02-27T14:42:20.564Z,100436.53
2019-02-27T14:44:47.023Z,100436.45
2019-02-27T14:47:12.957Z,100445.58
2019-02-27T14:49:38.973Z,100434.95
2019-02-27T14:52:04.936Z,100434.45
2019-02-27T14:54:30.902Z,100429.63
2019-02-27T14:56:56.871Z,100435.97
2019-02-27T14:59:22.819Z,100430.95
2019-02-27T15:01:49.456Z,100435.22
2019-02-27T15:04:15.447Z,100429.27
2019-02-27T15:06:41.283Z,100425.59
2019-02-27T15:09:07.310Z,100426.41
2019-02-27T15:11:33.290Z,100428.75
2019-02-27T15:14:00.596Z,100427.95
2019-02-27T15:16:26.968Z,100424.62
2019-02-27T15:18:55.844Z,100419.14
2019-02-27T15:21:20.979Z,100415.27
2019-02-27T15:23:46.940Z,100418.81
2019-02-27T15:26:16.028Z,100416.57
2019-02-27T15:28:41.695Z,100414.38
2019-02-27T15:31:07.738Z,100410.75
2019-02-27T15:33:35.907Z,100409.84
2019-02-27T15:36:04.387Z,100405.31
2019-02-27T15:38:33.595Z,100395.79
2019-02-27T15:41:02.374Z,100406.59
2019-02-27T15:43:27.447Z,100392.40
2019-02-27T15:45:53.476Z,100396.70
2019-02-27T15:48:19.426Z,100392.87
2019-02-27T15:50:45.277Z,100394.31
2019-02-27T15:53:14.584Z,100389.27
2019-02-27T15:55:39.082Z,100388.64
2019-02-27T15:58:05.058Z,100393.39
2019-02-27T16:00:31.188Z,100390.50
2019-02-27T16:02:57.273Z,100396.05
2019-02-27T16:05:23.202Z,100397.87
2019-02-27T16:07:49.802Z,100392.68
2019-02-27T16:10:23.348Z,100397.61
2019-02-27T16:12:49.743Z,100394.00
2019-02-27T16:15:17.842Z,100396.23
2019-02-27T16:17:43.968Z,100392.16
2019-02-27T16:20:16.857Z,100395.82
2019-02-27T16:22:42.995Z,100396.63
2019-02-27T16:25:13.980Z,100400.11
2019-02-27T16:27:39.391Z,100400.34
2019-02-27T16:30:17.104Z,100405.63
2019-02-27T16:32:47.990Z,100399.29
2019-02-27T16:35:11.338Z,100403.41
2019-02-27T16:37:37.288Z,100401.60
2019-02-27T16:40:09.479Z,100403.33
2019-02-27T16:42:36.366Z,100409.72
2019-02-27T16:45:06.696Z,100404.91
2019-02-27T16:47:32.865Z,100410.41
2019-02-27T16:49:58.829Z,100412.12
2019-02-27T16:52:24.829Z,100413.41
2019-02-27T16:54:50.810Z,100411.70
2019-02-27T16:57:21.210Z,100410.41
2019-02-27T16:59:45.326Z,100410.41
2019-02-27T17:02:12.144Z,100411.83
2019-02-27T17:04:37.987Z,100417.57
2019-02-27T17:07:03.972Z,100417.81
2019-02-27T17:09:35.048Z,100411.33
2019-02-27T17:12:04.224Z,100410.81
2019-02-27T17:14:29.041Z,100417.23
2019-02-27T17:16:55.022Z,100415.12
2019-02-27T17:19:20.963Z,100419.51
2019-02-27T17:21:46.908Z,100419.38
2019-02-27T17:24:12.815Z,100425.28
2019-02-27T17:26:39.787Z,100427.14
2019-02-27T17:29:05.736Z,100431.90
2019-02-27T17:31:31.813Z,100435.10
2019-02-27T17:33:58.073Z,100428.02
2019-02-27T17:36:25.952Z,100434.77
2019-02-27T17:38:51.807Z,100430.56
2019-02-27T17:41:17.686Z,100432.16
2019-02-27T17:43:43.581Z,100434.77
2019-02-27T17:46:09.416Z,100430.84
2019-02-27T17:48:35.672Z,100436.09
2019-02-27T17:51:05.489Z,100434.30
2019-02-27T17:53:29.568Z,100436.22
2019-02-27T17:55:56.378Z,100436.08
2019-02-27T17:58:22.260Z,100445.69
2019-02-27T18:00:51.229Z,100446.30
2019-02-27T18:03:20.659Z,100451.14
2019-02-27T18:05:46.566Z,100452.48
2019-02-27T18:08:15.791Z,100454.25
2019-02-27T18:10:40.437Z,100460.11
2019-02-27T18:13:06.450Z,100461.60
2019-02-27T18:15:32.402Z,100464.80
2019-02-27T18:17:58.428Z,100462.61
2019-02-27T18:20:25.815Z,100467.31
2019-02-27T18:22:51.909Z,100465.56
2019-02-27T18:25:18.364Z,100473.45
2019-02-27T18:27:44.323Z,100469.44
2019-02-27T18:30:15.526Z,100480.63
2019-02-27T18:32:41.531Z,100473.66
2019-02-27T18:35:07.552Z,100476.50
2019-02-27T18:37:33.593Z,100475.48
2019-02-27T18:39:59.869Z,100477.65
2019-02-27T18:42:29.530Z,100481.42
2019-02-27T18:44:55.475Z,100483.72
2019-02-27T18:47:21.359Z,100478.09
2019-02-27T18:49:49.086Z,100477.01
2019-02-27T18:52:21.188Z,100477.78
2019-02-27T18:54:43.162Z,100476.23
2019-02-27T18:57:11.926Z,100481.50
2019-02-27T18:59:37.999Z,100487.69
2019-02-27T19:02:04.041Z,100482.66
2019-02-27T19:04:35.083Z,100480.91
2019-02-27T19:06:57.966Z,100485.80
2019-02-27T19:09:23.918Z,100486.28
2019-02-27T19:11:50.886Z,100494.97
2019-02-27T19:14:17.654Z,100487.03
2019-02-27T19:16:43.702Z,100490.51
2019-02-27T19:19:09.920Z,100491.59
2019-02-27T19:21:35.944Z,100494.73
2019-02-27T19:24:01.977Z,100492.30
2019-02-27T19:26:28.001Z,100490.12
2019-02-27T19:28:59.312Z,100489.69
2019-02-27T19:31:21.870Z,100495.38
2019-02-27T19:33:47.979Z,100495.40
2019-02-27T19:36:19.217Z,100500.61
2019-02-27T19:38:44.242Z,100503.95
2019-02-27T19:41:09.795Z,100502.23
2019-02-27T19:43:35.640Z,100498.12
2019-02-27T19:46:01.740Z,100503.83
2019-02-27T19:48:28.946Z,100503.95
2019-02-27T19:50:55.631Z,100503.70
2019-02-27T19:53:21.540Z,100500.27
2019-02-27T19:55:47.535Z,100509.18
2019-02-27T19:58:17.139Z,100511.53
2019-02-27T20:00:48.261Z,100512.09
2019-02-27T20:03:16.174Z,100518.85
2019-02-27T20:05:42.485Z,100514.91
2019-02-27T20:08:10.819Z,100512.23
2019-02-27T20:10:39.900Z,100512.63
2019-02-27T20:13:07.062Z,100520.45
2019-02-27T20:15:35.083Z,100515.26
2019-02-27T20:18:01.010Z,100514.86
2019-02-27T20:20:27.102Z,100516.27
2019-02-27T20:22:54.720Z,100516.73
2019-02-27T20:25:26.085Z,100517.33
2019-02-27T20:27:52.581Z,100514.66
2019-02-27T20:30:20.202Z,100513.77
2019-02-27T20:32:47.078Z,100512.38
2019-02-27T20:35:13.660Z,100510.73
2019-02-27T20:37:41.387Z,100508.77
2019-02-27T20:40:10.785Z,100504.63
2019-02-27T20:42:37.647Z,100508.84
2019-02-27T20:45:10.560Z,100507.44
2019-02-27T20:47:37.304Z,100509.39
2019-02-27T20:50:08.873Z,100504.78
2019-02-27T20:52:35.348Z,100508.05
2019-02-27T20:55:01.526Z,100504.74
2019-02-27T20:57:27.576Z,100505.36
2019-02-27T20:59:53.518Z,100498.95
2019-02-27T21:02:19.706Z,100500.52
2019-02-27T21:04:45.867Z,100499.36
2019-02-27T21:07:11.713Z,100500.48
2019-02-27T21:09:37.736Z,100498.66
2019-02-27T21:12:05.349Z,100492.02
2019-02-27T21:14:32.433Z,100496.84
2019-02-27T21:16:58.261Z,100494.11
2019-02-27T21:19:24.116Z,100491.17
2019-02-27T21:21:53.643Z,100487.13
2019-02-27T21:24:17.927Z,100488.31
2019-02-27T21:26:43.763Z,100487.34
2019-02-27T21:29:09.925Z,100484.30
2019-02-27T21:31:35.936Z,100486.34
2019-02-27T21:34:01.754Z,100485.98
2019-02-27T21:36:27.775Z,100488.16
2019-02-27T21:38:53.707Z,100474.41
2019-02-27T21:41:19.539Z,100474.51
2019-02-27T21:43:45.376Z,100471.10
2019-02-27T21:46:14.598Z,100472.82
2019-02-27T21:48:41.616Z,100475.37
2019-02-27T21:51:07.522Z,100472.27
2019-02-27T21:53:33.349Z,100465.02
2019-02-27T21:55:59.168Z,100465.16
2019-02-27T21:58:25.899Z,100471.65
2019-02-27T22:00:51.722Z,100468.41
2019-02-27T22:03:17.673Z,100463.27
2019-02-27T22:05:44.388Z,100461.58
2019-02-27T22:08:10.212Z,100463.34
2019-02-27T22:10:36.089Z,100457.28
2019-02-27T22:13:02.144Z,100455.79
2019-02-27T22:15:28.949Z,100454.53
2019-02-27T22:17:55.018Z,100453.56
2019-02-27T22:20:21.041Z,100459.36
2019-02-27T22:22:47.064Z,100450.55
2019-02-27T22:25:13.038Z,100453.44
2019-02-27T22:27:38.986Z,100449.49
2019-02-27T22:30:08.610Z,100460.39
2019-02-27T22:32:34.514Z,100453.53
2019-02-27T22:35:02.824Z,100457.18
2019-02-27T22:37:28.116Z,100456.21
2019-02-27T22:39:53.959Z,100460.77
2019-02-27T22:42:19.768Z,100461.64
2019-02-27T22:44:45.618Z,100456.38
2019-02-27T22:47:11.490Z,100456.09
2019-02-27T22:49:37.600Z,100451.55
2019-02-27T22:52:03.547Z,100449.56
2019-02-27T22:54:29.362Z,100453.55
2019-02-27T22:56:55.183Z,100445.14
2019-02-27T22:59:21.030Z,100449.34
2019-02-27T23:01:50.831Z,100445.80
2019-02-27T23:04:17.064Z,100445.20
2019-02-27T23:06:43.740Z,100448.55
2019-02-27T23:09:12.097Z,100438.42
2019-02-27T23:11:39.621Z,100446.08
2019-02-27T23:14:05.636Z,100449.92
2019-02-27T23:16:31.447Z,100446.52
2019-02-27T23:18:57.375Z,100447.84
2019-02-27T23:21:23.194Z,100433.59
2019-02-27T23:23:49.133Z,100435.88
2019-02-27T23:26:19.751Z,100450.74
2019-02-27T23:28:42.869Z,100444.30
2019-02-27T23:31:08.987Z,100447.91
2019-02-27T23:33:36.631Z,100444.98
2019-02-27T23:36:02.693Z,100443.45
2019-02-27T23:38:28.661Z,100442.42
2019-02-27T23:40:54.565Z,100441.79
2019-02-27T23:43:20.671Z,100434.77
2019-02-27T23:45:46.590Z,100435.00
2019-02-27T23:48:12.752Z,100446.66
2019-02-27T23:50:38.848Z,100430.83
2019-02-27T23:53:04.959Z,100430.89
2019-02-27T23:55:30.896Z,100427.27
2019-02-27T23:57:57.924Z,100426.87
